sensor_id;sensor_type;location;lat;lon;timestamp;temperature;humidity
19110;DHT22;9687;50.836;12.060;2022-08-21T01:48:28;22.70;96.70
19110;DHT22;9687;50.836;12.060;2022-08-21T01:50:58;22.70;96.70
19110;DHT22;9687;50.836;12.060;2022-08-21T01:53:26;22.70;96.70
19110;DHT22;9687;50.836;12.060;2022-08-21T01:55:53;22.70;96.70
19110;DHT22;9687;50.836;12.060;2022-08-21T01:58:21;22.70;96.70
19110;DHT22;9687;50.836;12.060;2022-08-21T02:00:48;22.70;96.60
19110;DHT22;9687;50.836;12.060;2022-08-21T02:03:16;22.70;96.50
19110;DHT22;9687;50.836;12.060;2022-08-21T02:05:45;22.70;96.40
19110;DHT22;9687;50.836;12.060;2022-08-21T02:08:12;22.70;96.80
19110;DHT22;9687;50.836;12.060;2022-08-21T02:10:39;22.60;96.40
19110;DHT22;9687;50.836;12.060;2022-08-21T02:13:07;22.60;96.50
19110;DHT22;9687;50.836;12.060;2022-08-21T02:15:35;22.60;96.60
19110;DHT22;9687;50.836;12.060;2022-08-21T02:18:05;22.60;96.60
19110;DHT22;9687;50.836;12.060;2022-08-21T02:20:36;22.60;96.60
19110;DHT22;9687;50.836;12.060;2022-08-21T02:23:07;22.60;96.60
19110;DHT22;9687;50.836;12.060;2022-08-21T02:25:35;22.60;96.50
19110;DHT22;9687;50.836;12.060;2022-08-21T02:28:05;22.60;96.50
19110;DHT22;9687;50.836;12.060;2022-08-21T02:30:40;22.60;96.50
19110;DHT22;9687;50.836;12.060;2022-08-21T02:33:08;22.60;96.40
19110;DHT22;9687;50.836;12.060;2022-08-21T02:35:37;22.60;96.40
19110;DHT22;9687;50.836;12.060;2022-08-21T02:38:08;22.60;96.30
19110;DHT22;9687;50.836;12.060;2022-08-21T02:40:37;22.60;96.30
19110;DHT22;9687;50.836;12.060;2022-08-21T02:43:06;22.60;96.30
19110;DHT22;9687;50.836;12.060;2022-08-21T02:45:35;22.60;96.20
19110;DHT22;9687;50.836;12.060;2022-08-21T02:48:05;22.60;96.20
19110;DHT22;9687;50.836;12.060;2022-08-21T02:50:35;22.60;96.20
19110;DHT22;9687;50.836;12.060;2022-08-21T02:53:04;22.60;96.10
19110;DHT22;9687;50.836;12.060;2022-08-21T02:55:36;22.50;96.10
19110;DHT22;9687;50.836;12.060;2022-08-21T02:58:05;22.60;96.10
19110;DHT22;9687;50.836;12.060;2022-08-21T03:00:34;22.50;95.90
19110;DHT22;9687;50.836;12.060;2022-08-21T03:03:03;22.50;95.90
19110;DHT22;9687;50.836;12.060;2022-08-21T03:05:32;22.50;95.80
19110;DHT22;9687;50.836;12.060;2022-08-21T03:08:01;22.50;95.80
19110;DHT22;9687;50.836;12.060;2022-08-21T03:10:29;22.50;95.80
19110;DHT22;9687;50.836;12.060;2022-08-21T03:12:59;22.50;95.70
19110;DHT22;9687;50.836;12.060;2022-08-21T03:15:26;22.40;95.60
19110;DHT22;9687;50.836;12.060;2022-08-21T03:17:54;22.40;95.50
19110;DHT22;9687;50.836;12.060;2022-08-21T03:20:24;22.40;95.50
19110;DHT22;9687;50.836;12.060;2022-08-21T03:22:53;22.40;95.40
19110;DHT22;9687;50.836;12.060;2022-08-21T03:25:21;22.40;95.40
19110;DHT22;9687;50.836;12.060;2022-08-21T03:27:48;22.40;95.50
19110;DHT22;9687;50.836;12.060;2022-08-21T03:30:19;22.30;95.50
19110;DHT22;9687;50.836;12.060;2022-08-21T03:32:47;22.30;95.50
19110;DHT22;9687;50.836;12.060;2022-08-21T03:35:14;22.30;95.70
19110;DHT22;9687;50.836;12.060;2022-08-21T03:37:42;22.30;95.60
19110;DHT22;9687;50.836;12.060;2022-08-21T03:40:11;22.30;95.60
19110;DHT22;9687;50.836;12.060;2022-08-21T03:42:39;22.30;95.50
19110;DHT22;9687;50.836;12.060;2022-08-21T03:45:07;22.20;95.60
19110;DHT22;9687;50.836;12.060;2022-08-21T03:50:43;22.20;95.70
19110;DHT22;9687;50.836;12.060;2022-08-21T03:53:13;22.20;95.60
19110;DHT22;9687;50.836;12.060;2022-08-21T03:55:41;22.20;95.70
19110;DHT22;9687;50.836;12.060;2022-08-21T03:58:09;22.20;95.70
19110;DHT22;9687;50.836;12.060;2022-08-21T04:00:37;22.10;95.70
19110;DHT22;9687;50.836;12.060;2022-08-21T04:03:04;22.20;95.80
19110;DHT22;9687;50.836;12.060;2022-08-21T04:05:32;22.10;95.70
19110;DHT22;9687;50.836;12.060;2022-08-21T04:08:05;22.10;95.70
19110;DHT22;9687;50.836;12.060;2022-08-21T04:10:38;22.10;95.70
19110;DHT22;9687;50.836;12.060;2022-08-21T04:13:06;22.10;95.60
19110;DHT22;9687;50.836;12.060;2022-08-21T04:15:35;22.10;95.60
19110;DHT22;9687;50.836;12.060;2022-08-21T04:18:03;22.10;95.50
19110;DHT22;9687;50.836;12.060;2022-08-21T04:20:31;22.10;95.50
19110;DHT22;9687;50.836;12.060;2022-08-21T04:23:00;22.10;95.10
19110;DHT22;9687;50.836;12.060;2022-08-21T04:25:28;22.10;95.30
19110;DHT22;9687;50.836;12.060;2022-08-21T04:27:56;22.10;95.30
19110;DHT22;9687;50.836;12.060;2022-08-21T04:30:24;22.10;95.20
19110;DHT22;9687;50.836;12.060;2022-08-21T04:32:52;22.10;95.20
19110;DHT22;9687;50.836;12.060;2022-08-21T04:35:21;22.10;95.30
19110;DHT22;9687;50.836;12.060;2022-08-21T04:37:50;22.00;95.40
19110;DHT22;9687;50.836;12.060;2022-08-21T04:40:20;22.00;95.40
19110;DHT22;9687;50.836;12.060;2022-08-21T04:42:53;22.00;95.40
19110;DHT22;9687;50.836;12.060;2022-08-21T04:45:24;22.00;95.40
19110;DHT22;9687;50.836;12.060;2022-08-21T04:47:52;22.00;95.50
19110;DHT22;9687;50.836;12.060;2022-08-21T05:49:13;21.90;95.70
19110;DHT22;9687;50.836;12.060;2022-08-21T05:51:41;22.00;95.70
19110;DHT22;9687;50.836;12.060;2022-08-21T05:54:09;22.00;95.60
19110;DHT22;9687;50.836;12.060;2022-08-21T05:56:37;22.00;95.70
19110;DHT22;9687;50.836;12.060;2022-08-21T05:59:04;22.00;95.60
19110;DHT22;9687;50.836;12.060;2022-08-21T06:01:32;22.10;95.60
19110;DHT22;9687;50.836;12.060;2022-08-21T06:03:59;22.00;95.50
19110;DHT22;9687;50.836;12.060;2022-08-21T06:06:28;22.10;95.60
19110;DHT22;9687;50.836;12.060;2022-08-21T06:08:56;22.10;95.50
19110;DHT22;9687;50.836;12.060;2022-08-21T06:11:23;22.20;95.50
19110;DHT22;9687;50.836;12.060;2022-08-21T06:13:51;22.20;95.30
19110;DHT22;9687;50.836;12.060;2022-08-21T06:16:18;22.20;95.20
19110;DHT22;9687;50.836;12.060;2022-08-21T06:18:46;22.30;95.20
19110;DHT22;9687;50.836;12.060;2022-08-21T06:21:13;22.30;95.10
19110;DHT22;9687;50.836;12.060;2022-08-21T06:23:42;22.30;94.80
19110;DHT22;9687;50.836;12.060;2022-08-21T06:26:13;22.30;94.70
19110;DHT22;9687;50.836;12.060;2022-08-21T06:28:41;22.30;94.60
19110;DHT22;9687;50.836;12.060;2022-08-21T06:31:14;22.40;94.60
19110;DHT22;9687;50.836;12.060;2022-08-21T06:33:42;22.40;94.40
19110;DHT22;9687;50.836;12.060;2022-08-21T06:36:10;22.40;94.40
19110;DHT22;9687;50.836;12.060;2022-08-21T06:38:38;22.50;94.40
19110;DHT22;9687;50.836;12.060;2022-08-21T06:41:10;22.50;94.30
19110;DHT22;9687;50.836;12.060;2022-08-21T06:43:38;22.50;94.10
19110;DHT22;9687;50.836;12.060;2022-08-21T06:46:05;22.60;93.90
19110;DHT22;9687;50.836;12.060;2022-08-21T06:48:33;22.60;93.60
19110;DHT22;9687;50.836;12.060;2022-08-21T07:55:46;24.10;88.20
19110;DHT22;9687;50.836;12.060;2022-08-21T07:58:13;24.30;87.40
19110;DHT22;9687;50.836;12.060;2022-08-21T08:00:41;24.40;86.00
19110;DHT22;9687;50.836;12.060;2022-08-21T08:03:09;24.50;85.40
19110;DHT22;9687;50.836;12.060;2022-08-21T08:05:36;24.70;85.20
19110;DHT22;9687;50.836;12.060;2022-08-21T08:08:05;24.80;84.70
19110;DHT22;9687;50.836;12.060;2022-08-21T08:10:33;25.00;83.40
19110;DHT22;9687;50.836;12.060;2022-08-21T08:13:02;25.40;83.10
19110;DHT22;9687;50.836;12.060;2022-08-21T08:15:30;25.70;81.80
19110;DHT22;9687;50.836;12.060;2022-08-21T08:17:58;26.10;80.60
19110;DHT22;9687;50.836;12.060;2022-08-21T08:20:27;26.50;79.10
19110;DHT22;9687;50.836;12.060;2022-08-21T08:22:55;26.80;77.70
19110;DHT22;9687;50.836;12.060;2022-08-21T08:25:23;27.20;76.20
19110;DHT22;9687;50.836;12.060;2022-08-21T08:27:52;27.50;74.10
19110;DHT22;9687;50.836;12.060;2022-08-21T08:30:21;27.70;72.40
19110;DHT22;9687;50.836;12.060;2022-08-21T08:32:50;28.00;70.20
19110;DHT22;9687;50.836;12.060;2022-08-21T08:35:17;28.20;69.50
19110;DHT22;9687;50.836;12.060;2022-08-21T08:37:45;28.50;67.80
19110;DHT22;9687;50.836;12.060;2022-08-21T08:40:18;28.60;66.60
19110;DHT22;9687;50.836;12.060;2022-08-21T08:42:47;28.90;65.60
19110;DHT22;9687;50.836;12.060;2022-08-21T08:45:18;29.10;65.40
19110;DHT22;9687;50.836;12.060;2022-08-21T08:47:57;29.30;64.40
19110;DHT22;9687;50.836;12.060;2022-08-21T08:50:30;29.50;62.00
19110;DHT22;9687;50.836;12.060;2022-08-21T08:53:03;29.70;61.30
19110;DHT22;9687;50.836;12.060;2022-08-21T08:55:34;29.90;60.40
19110;DHT22;9687;50.836;12.060;2022-08-21T08:58:02;30.20;59.50
19110;DHT22;9687;50.836;12.060;2022-08-21T09:00:31;30.40;58.80
19110;DHT22;9687;50.836;12.060;2022-08-21T09:03:02;30.70;58.40
19110;DHT22;9687;50.836;12.060;2022-08-21T09:05:40;30.90;57.70
19110;DHT22;9687;50.836;12.060;2022-08-21T09:08:23;31.10;57.20
19110;DHT22;9687;50.836;12.060;2022-08-21T09:11:01;31.40;56.90
19110;DHT22;9687;50.836;12.060;2022-08-21T09:13:38;31.80;56.40
19110;DHT22;9687;50.836;12.060;2022-08-21T09:16:13;32.10;55.60
19110;DHT22;9687;50.836;12.060;2022-08-21T09:18:54;32.40;54.70
19110;DHT22;9687;50.836;12.060;2022-08-21T09:21:34;32.40;54.20
19110;DHT22;9687;50.836;12.060;2022-08-21T09:24:18;32.30;54.00
19110;DHT22;9687;50.836;12.060;2022-08-21T09:26:57;32.20;53.40
19110;DHT22;9687;50.836;12.060;2022-08-21T09:29:26;32.10;52.90
19110;DHT22;9687;50.836;12.060;2022-08-21T09:31:56;31.90;53.00
19110;DHT22;9687;50.836;12.060;2022-08-21T09:34:27;31.70;54.00
19110;DHT22;9687;50.836;12.060;2022-08-21T09:36:55;31.40;54.20
19110;DHT22;9687;50.836;12.060;2022-08-21T09:39:25;31.30;54.20
19110;DHT22;9687;50.836;12.060;2022-08-21T09:41:58;31.00;54.10
19110;DHT22;9687;50.836;12.060;2022-08-21T09:44:28;30.80;54.70
19110;DHT22;9687;50.836;12.060;2022-08-21T09:46:56;30.70;55.40
19110;DHT22;9687;50.836;12.060;2022-08-21T09:49:29;30.50;55.80
19110;DHT22;9687;50.836;12.060;2022-08-21T09:51:58;30.20;56.00
19110;DHT22;9687;50.836;12.060;2022-08-21T09:54:30;30.00;56.60
19110;DHT22;9687;50.836;12.060;2022-08-21T09:57:00;29.90;57.10
19110;DHT22;9687;50.836;12.060;2022-08-21T09:59:49;29.60;57.30
19110;DHT22;9687;50.836;12.060;2022-08-21T10:02:26;29.40;57.60
19110;DHT22;9687;50.836;12.060;2022-08-21T10:04:59;29.30;57.60
19110;DHT22;9687;50.836;12.060;2022-08-21T10:07:29;29.30;58.00
19110;DHT22;9687;50.836;12.060;2022-08-21T10:10:03;29.50;58.30
19110;DHT22;9687;50.836;12.060;2022-08-21T10:12:38;29.90;58.10
19110;DHT22;9687;50.836;12.060;2022-08-21T10:15:13;30.40;56.50
19110;DHT22;9687;50.836;12.060;2022-08-21T10:17:48;30.90;54.70
19110;DHT22;9687;50.836;12.060;2022-08-21T10:20:23;31.40;54.20
19110;DHT22;9687;50.836;12.060;2022-08-21T10:23:02;31.80;54.00
19110;DHT22;9687;50.836;12.060;2022-08-21T10:25:37;32.10;52.50
19110;DHT22;9687;50.836;12.060;2022-08-21T10:28:13;32.20;52.30
19110;DHT22;9687;50.836;12.060;2022-08-21T10:30:50;32.20;52.30
19110;DHT22;9687;50.836;12.060;2022-08-21T10:33:28;32.10;52.70
19110;DHT22;9687;50.836;12.060;2022-08-21T10:36:03;32.20;52.70
19110;DHT22;9687;50.836;12.060;2022-08-21T10:41:32;32.40;51.90
19110;DHT22;9687;50.836;12.060;2022-08-21T10:44:12;32.30;51.50
19110;DHT22;9687;50.836;12.060;2022-08-21T10:46:49;32.10;52.20
19110;DHT22;9687;50.836;12.060;2022-08-21T10:49:25;32.00;52.10
19110;DHT22;9687;50.836;12.060;2022-08-21T10:52:20;32.00;52.10
19110;DHT22;9687;50.836;12.060;2022-08-21T10:54:52;32.20;52.20
19110;DHT22;9687;50.836;12.060;2022-08-21T12:48:31;30.50;50.30
19110;DHT22;9687;50.836;12.060;2022-08-21T12:51:09;30.50;51.00
19110;DHT22;9687;50.836;12.060;2022-08-21T12:53:43;30.50;51.20
19110;DHT22;9687;50.836;12.060;2022-08-21T12:56:14;30.50;51.10
19110;DHT22;9687;50.836;12.060;2022-08-21T12:58:46;30.50;51.20
19110;DHT22;9687;50.836;12.060;2022-08-21T13:59:51;29.90;51.70
19110;DHT22;9687;50.836;12.060;2022-08-21T14:02:21;29.90;51.50
19110;DHT22;9687;50.836;12.060;2022-08-21T14:04:52;29.80;50.70
19110;DHT22;9687;50.836;12.060;2022-08-21T14:07:25;29.90;50.90
19110;DHT22;9687;50.836;12.060;2022-08-21T14:09:55;29.90;50.80
19110;DHT22;9687;50.836;12.060;2022-08-21T14:12:25;29.90;50.70
19110;DHT22;9687;50.836;12.060;2022-08-21T14:14:56;29.90;50.50
19110;DHT22;9687;50.836;12.060;2022-08-21T14:17:29;29.90;50.70
19110;DHT22;9687;50.836;12.060;2022-08-21T14:19:58;29.90;50.80
19110;DHT22;9687;50.836;12.060;2022-08-21T14:22:31;29.90;50.80
19110;DHT22;9687;50.836;12.060;2022-08-21T14:25:02;29.90;50.70
19110;DHT22;9687;50.836;12.060;2022-08-21T14:27:32;29.90;50.20
19110;DHT22;9687;50.836;12.060;2022-08-21T14:30:08;29.90;50.20
19110;DHT22;9687;50.836;12.060;2022-08-21T14:32:39;29.90;49.90
19110;DHT22;9687;50.836;12.060;2022-08-21T14:35:08;29.90;49.80
19110;DHT22;9687;50.836;12.060;2022-08-21T14:37:40;29.90;50.00
19110;DHT22;9687;50.836;12.060;2022-08-21T14:40:10;29.80;50.20
19110;DHT22;9687;50.836;12.060;2022-08-21T14:42:40;29.80;50.30
19110;DHT22;9687;50.836;12.060;2022-08-21T14:45:13;29.80;50.30
19110;DHT22;9687;50.836;12.060;2022-08-21T14:47:41;29.80;50.10
19110;DHT22;9687;50.836;12.060;2022-08-21T14:50:10;29.80;50.50
19110;DHT22;9687;50.836;12.060;2022-08-21T14:52:38;29.70;50.40
19110;DHT22;9687;50.836;12.060;2022-08-21T14:55:07;29.80;50.60
19110;DHT22;9687;50.836;12.060;2022-08-21T14:57:37;29.80;50.30
19110;DHT22;9687;50.836;12.060;2022-08-21T15:00:06;29.80;49.60
19110;DHT22;9687;50.836;12.060;2022-08-21T15:02:35;29.80;50.30
19110;DHT22;9687;50.836;12.060;2022-08-21T15:05:04;29.80;50.10
19110;DHT22;9687;50.836;12.060;2022-08-21T15:07:32;29.80;49.80
19110;DHT22;9687;50.836;12.060;2022-08-21T15:10:00;29.80;49.60
19110;DHT22;9687;50.836;12.060;2022-08-21T15:12:28;29.80;49.80
19110;DHT22;9687;50.836;12.060;2022-08-21T15:14:56;29.80;49.80
19110;DHT22;9687;50.836;12.060;2022-08-21T15:17:23;29.70;50.10
19110;DHT22;9687;50.836;12.060;2022-08-21T15:23:10;29.60;50.10
19110;DHT22;9687;50.836;12.060;2022-08-21T15:25:41;29.60;50.60
19110;DHT22;9687;50.836;12.060;2022-08-21T15:28:10;29.50;50.50
19110;DHT22;9687;50.836;12.060;2022-08-21T15:30:39;29.50;50.70
19110;DHT22;9687;50.836;12.060;2022-08-21T15:33:09;29.40;50.50
19110;DHT22;9687;50.836;12.060;2022-08-21T15:35:37;29.40;50.10
19110;DHT22;9687;50.836;12.060;2022-08-21T15:38:05;29.30;51.10
19110;DHT22;9687;50.836;12.060;2022-08-21T15:40:35;29.30;51.00
19110;DHT22;9687;50.836;12.060;2022-08-21T15:43:04;29.30;51.50
19110;DHT22;9687;50.836;12.060;2022-08-21T15:45:33;29.20;51.70
19110;DHT22;9687;50.836;12.060;2022-08-21T15:48:00;29.20;51.90
19110;DHT22;9687;50.836;12.060;2022-08-21T15:50:29;29.20;51.70
19110;DHT22;9687;50.836;12.060;2022-08-21T15:52:57;29.20;50.90
19110;DHT22;9687;50.836;12.060;2022-08-21T15:55:25;29.20;50.70
19110;DHT22;9687;50.836;12.060;2022-08-21T15:57:54;29.20;50.70
19110;DHT22;9687;50.836;12.060;2022-08-21T16:00:24;29.20;51.00
19110;DHT22;9687;50.836;12.060;2022-08-21T16:02:55;29.20;51.00
19110;DHT22;9687;50.836;12.060;2022-08-21T16:05:24;29.10;50.50
19110;DHT22;9687;50.836;12.060;2022-08-21T16:07:53;29.10;50.60
19110;DHT22;9687;50.836;12.060;2022-08-21T16:10:22;29.10;50.90
19110;DHT22;9687;50.836;12.060;2022-08-21T16:12:55;29.10;51.20
19110;DHT22;9687;50.836;12.060;2022-08-21T16:15:25;29.10;51.30
19110;DHT22;9687;50.836;12.060;2022-08-21T16:17:53;29.00;50.80
19110;DHT22;9687;50.836;12.060;2022-08-21T16:20:23;29.00;50.80
19110;DHT22;9687;50.836;12.060;2022-08-21T16:22:52;28.90;50.90
19110;DHT22;9687;50.836;12.060;2022-08-21T16:25:20;28.90;51.20
19110;DHT22;9687;50.836;12.060;2022-08-21T16:27:52;28.80;51.40
19110;DHT22;9687;50.836;12.060;2022-08-21T16:30:21;28.80;51.50
19110;DHT22;9687;50.836;12.060;2022-08-21T16:32:50;28.80;51.50
19110;DHT22;9687;50.836;12.060;2022-08-21T16:35:20;28.80;51.70
19110;DHT22;9687;50.836;12.060;2022-08-21T16:37:48;28.70;51.90
19110;DHT22;9687;50.836;12.060;2022-08-21T16:40:17;28.70;52.00
19110;DHT22;9687;50.836;12.060;2022-08-21T16:42:46;28.70;52.00
19110;DHT22;9687;50.836;12.060;2022-08-21T16:45:18;28.70;52.00
19110;DHT22;9687;50.836;12.060;2022-08-21T16:47:48;28.60;51.70
19110;DHT22;9687;50.836;12.060;2022-08-21T16:50:20;28.60;51.60
19110;DHT22;9687;50.836;12.060;2022-08-21T16:52:48;28.60;51.70
19110;DHT22;9687;50.836;12.060;2022-08-21T16:55:16;28.50;51.60
19110;DHT22;9687;50.836;12.060;2022-08-21T16:57:44;28.50;52.00
19110;DHT22;9687;50.836;12.060;2022-08-21T17:00:13;28.40;51.90
19110;DHT22;9687;50.836;12.060;2022-08-21T17:02:43;28.30;51.90
19110;DHT22;9687;50.836;12.060;2022-08-21T17:05:13;28.30;52.50
19110;DHT22;9687;50.836;12.060;2022-08-21T17:07:40;28.30;52.20
19110;DHT22;9687;50.836;12.060;2022-08-21T17:10:10;28.20;52.30
19110;DHT22;9687;50.836;12.060;2022-08-21T17:12:39;28.10;52.50
19110;DHT22;9687;50.836;12.060;2022-08-21T17:15:12;28.10;52.50
19110;DHT22;9687;50.836;12.060;2022-08-21T17:17:42;28.00;52.60
19110;DHT22;9687;50.836;12.060;2022-08-21T17:20:10;28.00;52.30
19110;DHT22;9687;50.836;12.060;2022-08-21T17:22:38;28.00;53.00
19110;DHT22;9687;50.836;12.060;2022-08-21T17:25:07;27.90;53.10
19110;DHT22;9687;50.836;12.060;2022-08-21T17:27:34;27.90;53.30
19110;DHT22;9687;50.836;12.060;2022-08-21T17:30:03;27.80;53.40
19110;DHT22;9687;50.836;12.060;2022-08-21T17:32:32;27.80;53.50
19110;DHT22;9687;50.836;12.060;2022-08-21T17:35:00;27.80;53.90
19110;DHT22;9687;50.836;12.060;2022-08-21T17:37:27;27.70;53.90
19110;DHT22;9687;50.836;12.060;2022-08-21T17:39:56;27.70;53.80
19110;DHT22;9687;50.836;12.060;2022-08-21T17:42:24;27.60;53.80
19110;DHT22;9687;50.836;12.060;2022-08-21T17:44:55;27.60;53.90
19110;DHT22;9687;50.836;12.060;2022-08-21T17:47:25;27.50;54.10
19110;DHT22;9687;50.836;12.060;2022-08-21T17:50:17;27.50;54.00
19110;DHT22;9687;50.836;12.060;2022-08-21T17:53:03;27.40;54.10
19110;DHT22;9687;50.836;12.060;2022-08-21T17:55:32;27.40;54.10
19110;DHT22;9687;50.836;12.060;2022-08-21T17:58:01;27.30;54.40
19110;DHT22;9687;50.836;12.060;2022-08-21T20:00:50;25.60;60.70
19110;DHT22;9687;50.836;12.060;2022-08-21T20:03:17;25.60;60.70
19110;DHT22;9687;50.836;12.060;2022-08-21T20:05:45;25.60;60.90
19110;DHT22;9687;50.836;12.060;2022-08-21T20:08:13;25.60;61.00
19110;DHT22;9687;50.836;12.060;2022-08-21T20:10:41;25.50;60.90
19110;DHT22;9687;50.836;12.060;2022-08-21T20:13:08;25.50;61.30
19110;DHT22;9687;50.836;12.060;2022-08-21T20:15:36;25.40;61.60
19110;DHT22;9687;50.836;12.060;2022-08-21T20:18:06;25.40;61.70
19110;DHT22;9687;50.836;12.060;2022-08-21T20:20:34;25.40;61.90
19110;DHT22;9687;50.836;12.060;2022-08-21T20:23:02;25.30;61.80
19110;DHT22;9687;50.836;12.060;2022-08-21T20:25:30;25.30;62.00
19110;DHT22;9687;50.836;12.060;2022-08-21T20:27:58;25.30;62.40
19110;DHT22;9687;50.836;12.060;2022-08-21T20:30:26;25.20;62.60
19110;DHT22;9687;50.836;12.060;2022-08-21T20:32:55;25.20;62.60
19110;DHT22;9687;50.836;12.060;2022-08-21T20:35:23;25.10;62.90
19110;DHT22;9687;50.836;12.060;2022-08-21T20:37:51;25.00;63.10
19110;DHT22;9687;50.836;12.060;2022-08-21T23:40:39;21.90;73.20
19110;DHT22;9687;50.836;12.060;2022-08-21T23:43:21;21.80;73.20
19110;DHT22;9687;50.836;12.060;2022-08-21T23:46:03;21.80;73.50
19110;DHT22;9687;50.836;12.060;2022-08-21T23:48:42;21.80;73.80
19110;DHT22;9687;50.836;12.060;2022-08-21T23:51:14;21.70;73.90
19110;DHT22;9687;50.836;12.060;2022-08-21T23:53:52;21.70;73.80
19110;DHT22;9687;50.836;12.060;2022-08-21T23:56:36;21.70;74.00
19110;DHT22;9687;50.836;12.060;2022-08-21T23:59:14;21.70;74.10
